PWSweather.com
Personal Weather Stations
Station Observations

BrisbaneAU

Lat: -27.398, Lon: 152.926

Elevation: 249

Station Type: La Crosse WS 2306

http://www.brisbanelocalweather.heliohost.org/

Latest ConditionsUpdated 3:25:00 PM GMT+10:10 Saturday, Jul 21, 2018
Currently Today's Max Today's Min Today's Average
Temperature 67.6°F19.8°C 69.1°F20.6°C 49.3°F9.6°C 59.4°F15.2°C
Dew Point 34.2°F1.2°C 40.0°F4.4°C 32.9°F0.5°C 36.3°F2.4°C
Winds Calm Calm 9.1 mph -14.6 kmh - - 1.2 mph 1.9 kmh
Wind Gusts -- 13.7 mph22.0 kmh - -
Humidity 29% 56% 27% 43%
Pressure 30.11 in1019.6 mb 30.21 in1023.0 mb 30.08 in1018.6 mb -
Hour Temp Dew Point Humidity Winds Wind Gusts Pressure Precip Precip Rate Daily Precip Total
03:25 PM 67.6°F19.8°C 34.2°F1.2°C 29% Calm Calm -- 30.11 in1019.6 mb 0.00 in0.0 mm 0.00 in0.0 mm 0.00 in0.0 mm
03:20 PM 67.6°F19.8°C 34.2°F1.2°C 29% Calm Calm -- 30.11 in1019.6 mb 0.00 in0.0 mm 0.00 in0.0 mm 0.00 in0.0 mm
03:15 PM 67.6°F19.8°C 33.3°F0.7°C 28% 0.5 mph WSW0.8 kmh WSW 4.0 mph6.4 kmh 30.11 in1019.6 mb 0.00 in0.0 mm 0.00 in0.0 mm 0.00 in0.0 mm
03:10 PM 67.8°F19.9°C 33.5°F0.8°C 28% 0.8 mph WSW1.3 kmh WSW 4.0 mph6.4 kmh 30.11 in1019.6 mb 0.00 in0.0 mm 0.00 in0.0 mm 0.00 in0.0 mm
03:05 PM 68.2°F20.1°C 33.8°F1.0°C 28% 1.9 mph WSW3.1 kmh WSW 6.4 mph10.3 kmh 30.11 in1019.6 mb 0.00 in0.0 mm 0.00 in0.0 mm 0.00 in0.0 mm
03:00 PM 68.2°F20.1°C 32.9°F0.5°C 27% 1.5 mph WSW2.4 kmh WSW 6.4 mph10.3 kmh 30.11 in1019.6 mb 0.00 in0.0 mm 0.00 in0.0 mm 0.00 in0.0 mm
02:55 PM 68.4°F20.2°C 34.8°F1.6°C 29% 2.4 mph WSW3.9 kmh WSW 5.6 mph9.0 kmh 30.11 in1019.6 mb 0.00 in0.0 mm 0.00 in0.0 mm 0.00 in0.0 mm
02:50 PM 68.4°F20.2°C 34.8°F1.6°C 29% 4.7 mph WSW7.6 kmh WSW 5.6 mph9.0 kmh 30.11 in1019.6 mb 0.00 in0.0 mm 0.00 in0.0 mm 0.00 in0.0 mm
02:45 PM 68.5°F20.3°C 35.0°F1.7°C 29% 2.5 mph WSW4.0 kmh WSW 5.6 mph9.0 kmh 30.11 in1019.6 mb 0.00 in0.0 mm 0.00 in0.0 mm 0.00 in0.0 mm
02:40 PM 68.4°F20.2°C 34.8°F1.6°C 29% Calm Calm -- 30.11 in1019.6 mb 0.00 in0.0 mm 0.00 in0.0 mm 0.00 in0.0 mm
02:35 PM 68.5°F20.3°C 35.0°F1.7°C 29% Calm Calm -- 30.11 in1019.6 mb 0.00 in0.0 mm 0.00 in0.0 mm 0.00 in0.0 mm
02:30 PM 68.9°F20.5°C 35.3°F1.8°C 29% Calm Calm -- 30.11 in1019.6 mb 0.00 in0.0 mm 0.00 in0.0 mm 0.00 in0.0 mm
02:25 PM 69.1°F20.6°C 36.3°F2.4°C 30% Calm Calm -- 30.11 in1019.6 mb 0.00 in0.0 mm 0.00 in0.0 mm 0.00 in0.0 mm
02:20 PM 68.9°F20.5°C 35.3°F1.8°C 29% Calm Calm -- 30.11 in1019.6 mb 0.00 in0.0 mm 0.00 in0.0 mm 0.00 in0.0 mm
02:15 PM 69.1°F20.6°C 35.5°F1.9°C 29% 0.5 mph WSW0.8 kmh WSW 5.6 mph9.0 kmh 30.12 in1020.0 mb 0.00 in0.0 mm 0.00 in0.0 mm 0.00 in0.0 mm
02:10 PM 68.9°F20.5°C 35.3°F1.8°C 29% 2.9 mph WSW4.7 kmh WSW 8.1 mph13.0 kmh 30.11 in1019.6 mb 0.00 in0.0 mm 0.00 in0.0 mm 0.00 in0.0 mm
02:05 PM 68.9°F20.5°C 35.3°F1.8°C 29% 4.4 mph WSW7.1 kmh WSW 8.9 mph14.3 kmh 30.12 in1020.0 mb 0.00 in0.0 mm 0.00 in0.0 mm 0.00 in0.0 mm
02:00 PM 68.7°F20.4°C 35.2°F1.8°C 29% 4.8 mph WSW7.7 kmh WSW 8.9 mph14.3 kmh 30.12 in1020.0 mb 0.00 in0.0 mm 0.00 in0.0 mm 0.00 in0.0 mm
01:55 PM 68.9°F20.5°C 35.3°F1.8°C 29% 3.0 mph WSW4.8 kmh WSW 5.6 mph9.0 kmh 30.12 in1020.0 mb 0.00 in0.0 mm 0.00 in0.0 mm 0.00 in0.0 mm
01:50 PM 68.9°F20.5°C 35.3°F1.8°C 29% 0.4 mph WSW0.6 kmh WSW 4.0 mph6.4 kmh 30.12 in1020.0 mb 0.00 in0.0 mm 0.00 in0.0 mm 0.00 in0.0 mm
01:45 PM 68.9°F20.5°C 36.2°F2.3°C 30% Calm Calm -- 30.12 in1020.0 mb 0.00 in0.0 mm 0.00 in0.0 mm 0.00 in0.0 mm
01:40 PM 68.9°F20.5°C 36.2°F2.3°C 30% Calm Calm -- 30.12 in1020.0 mb 0.00 in0.0 mm 0.00 in0.0 mm 0.00 in0.0 mm
01:35 PM 68.9°F20.5°C 36.2°F2.3°C 30% Calm Calm -- 30.12 in1020.0 mb 0.00 in0.0 mm 0.00 in0.0 mm 0.00 in0.0 mm
01:30 PM 69.1°F20.6°C 35.5°F1.9°C 29% Calm Calm -- 30.13 in1020.3 mb 0.00 in0.0 mm 0.00 in0.0 mm 0.00 in0.0 mm
01:25 PM 68.9°F20.5°C 36.2°F2.3°C 30% Calm Calm -- 30.13 in1020.3 mb 0.00 in0.0 mm 0.00 in0.0 mm 0.00 in0.0 mm
01:20 PM 68.9°F20.5°C 36.2°F2.3°C 30% Calm Calm -- 30.13 in1020.3 mb 0.00 in0.0 mm 0.00 in0.0 mm 0.00 in0.0 mm
01:15 PM 68.7°F20.4°C 36.0°F2.2°C 30% Calm Calm -- 30.13 in1020.3 mb 0.00 in0.0 mm 0.00 in0.0 mm 0.00 in0.0 mm
01:10 PM 68.4°F20.2°C 36.5°F2.5°C 31% Calm Calm -- 30.13 in1020.3 mb 0.00 in0.0 mm 0.00 in0.0 mm 0.00 in0.0 mm
01:05 PM 68.4°F20.2°C 35.7°F2.1°C 30% 0.4 mph WSW0.6 kmh WSW 4.0 mph6.4 kmh 30.13 in1020.3 mb 0.00 in0.0 mm 0.00 in0.0 mm 0.00 in0.0 mm
01:00 PM 67.8°F19.9°C 35.2°F1.8°C 30% 0.9 mph WSW1.4 kmh WSW 4.0 mph6.4 kmh 30.14 in1020.7 mb 0.00 in0.0 mm 0.00 in0.0 mm 0.00 in0.0 mm
12:55 PM 67.8°F19.9°C 35.2°F1.8°C 30% 2.0 mph WSW3.2 kmh WSW 4.0 mph6.4 kmh 30.14 in1020.7 mb 0.00 in0.0 mm 0.00 in0.0 mm 0.00 in0.0 mm
12:50 PM 68.0°F20.0°C 35.4°F1.9°C 30% 2.7 mph WSW4.3 kmh WSW 3.2 mph5.1 kmh 30.14 in1020.7 mb 0.00 in0.0 mm 0.00 in0.0 mm 0.00 in0.0 mm
12:45 PM 67.8°F19.9°C 35.2°F1.8°C 30% 1.5 mph WSW2.4 kmh WSW 3.2 mph5.1 kmh 30.15 in1021.0 mb 0.00 in0.0 mm 0.00 in0.0 mm 0.00 in0.0 mm
12:40 PM 67.8°F19.9°C 35.2°F1.8°C 30% Calm Calm -- 30.14 in1020.7 mb 0.00 in0.0 mm 0.00 in0.0 mm 0.00 in0.0 mm
12:35 PM 67.6°F19.8°C 35.1°F1.7°C 30% 0.4 mph WSW0.6 kmh WSW 5.6 mph9.0 kmh 30.15 in1021.0 mb 0.00 in0.0 mm 0.00 in0.0 mm 0.00 in0.0 mm
12:30 PM 67.6°F19.8°C 35.1°F1.7°C 30% 3.3 mph WSW5.3 kmh WSW 5.6 mph9.0 kmh 30.15 in1021.0 mb 0.00 in0.0 mm 0.00 in0.0 mm 0.00 in0.0 mm
12:25 PM 67.5°F19.7°C 34.9°F1.6°C 30% 3.3 mph WSW5.3 kmh WSW 5.6 mph9.0 kmh 30.14 in1020.7 mb 0.00 in0.0 mm 0.00 in0.0 mm 0.00 in0.0 mm
12:20 PM 67.6°F19.8°C 35.9°F2.2°C 31% 0.5 mph WSW0.8 kmh WSW 5.6 mph9.0 kmh 30.15 in1021.0 mb 0.00 in0.0 mm 0.00 in0.0 mm 0.00 in0.0 mm
12:15 PM 67.6°F19.8°C 35.1°F1.7°C 30% Calm Calm -- 30.15 in1021.0 mb 0.00 in0.0 mm 0.00 in0.0 mm 0.00 in0.0 mm
12:10 PM 67.3°F19.6°C 35.6°F2.0°C 31% 1.4 mph WSW2.3 kmh WSW 3.2 mph5.1 kmh 30.15 in1021.0 mb 0.00 in0.0 mm 0.00 in0.0 mm 0.00 in0.0 mm
12:05 PM 67.1°F19.5°C 34.6°F1.4°C 30% 1.4 mph WSW2.3 kmh WSW 3.2 mph5.1 kmh 30.16 in1021.3 mb 0.00 in0.0 mm 0.00 in0.0 mm 0.00 in0.0 mm
12:00 PM 67.1°F19.5°C 35.4°F1.9°C 31% 0.1 mph WSW0.2 kmh WSW 3.2 mph5.1 kmh 30.16 in1021.3 mb 0.00 in0.0 mm 0.00 in0.0 mm 0.00 in0.0 mm
11:55 AM 66.9°F19.4°C 36.1°F2.3°C 32% Calm Calm -- 30.16 in1021.3 mb 0.00 in0.0 mm 0.00 in0.0 mm 0.00 in0.0 mm
11:50 AM 66.9°F19.4°C 36.1°F2.3°C 32% Calm Calm -- 30.16 in1021.3 mb 0.00 in0.0 mm 0.00 in0.0 mm 0.00 in0.0 mm
11:45 AM 66.9°F19.4°C 36.9°F2.7°C 33% Calm Calm -- 30.16 in1021.3 mb 0.00 in0.0 mm 0.00 in0.0 mm 0.00 in0.0 mm
11:40 AM 67.3°F19.6°C 37.2°F2.9°C 33% Calm Calm -- 30.16 in1021.3 mb 0.00 in0.0 mm 0.00 in0.0 mm 0.00 in0.0 mm
11:35 AM 67.3°F19.6°C 37.2°F2.9°C 33% Calm Calm -- 30.17 in1021.7 mb 0.00 in0.0 mm 0.00 in0.0 mm 0.00 in0.0 mm
11:30 AM 67.1°F19.5°C 37.8°F3.2°C 34% 3.4 mph WSW5.5 kmh WSW 9.7 mph15.6 kmh 30.16 in1021.3 mb 0.00 in0.0 mm 0.00 in0.0 mm 0.00 in0.0 mm
11:25 AM 66.9°F19.4°C 38.4°F3.6°C 35% 5.9 mph WSW9.5 kmh WSW 9.7 mph15.6 kmh 30.17 in1021.7 mb 0.00 in0.0 mm 0.00 in0.0 mm 0.00 in0.0 mm
11:20 AM 66.9°F19.4°C 38.4°F3.6°C 35% 2.5 mph WSW4.0 kmh WSW 9.7 mph15.6 kmh 30.17 in1021.7 mb 0.00 in0.0 mm 0.00 in0.0 mm 0.00 in0.0 mm
11:15 AM 66.7°F19.3°C 38.9°F3.8°C 35% Calm Calm -- 30.18 in1022.0 mb 0.00 in0.0 mm 0.00 in0.0 mm 0.00 in0.0 mm
11:10 AM 66.7°F19.3°C 38.9°F3.8°C 36% 0.6 mph WSW1.0 kmh WSW 3.2 mph5.1 kmh 30.18 in1022.0 mb 0.00 in0.0 mm 0.00 in0.0 mm 0.00 in0.0 mm
11:05 AM 66.6°F19.2°C 38.0°F3.3°C 35% 0.6 mph WSW1.0 kmh WSW 3.2 mph5.1 kmh 30.18 in1022.0 mb 0.00 in0.0 mm 0.00 in0.0 mm 0.00 in0.0 mm
11:00 AM 66.4°F19.1°C 38.6°F3.7°C 36% Calm Calm -- 30.18 in1022.0 mb 0.00 in0.0 mm 0.00 in0.0 mm 0.00 in0.0 mm
10:55 AM 66.2°F19.0°C 39.8°F4.3°C 38% 1.2 mph WSW1.9 kmh WSW 5.6 mph9.0 kmh 30.19 in1022.4 mb 0.00 in0.0 mm 0.00 in0.0 mm 0.00 in0.0 mm
10:50 AM 66.4°F19.1°C 40.0°F4.4°C 38% 3.7 mph WSW6.0 kmh WSW 8.9 mph14.3 kmh 30.19 in1022.4 mb 0.00 in0.0 mm 0.00 in0.0 mm 0.00 in0.0 mm
10:45 AM 66.0°F18.9°C 39.7°F4.3°C 38% 4.7 mph WSW7.6 kmh WSW 8.9 mph14.3 kmh 30.19 in1022.4 mb 0.00 in0.0 mm 0.00 in0.0 mm 0.00 in0.0 mm
10:40 AM 65.8°F18.8°C 39.5°F4.2°C 38% 3.2 mph WSW5.1 kmh WSW 6.4 mph10.3 kmh 30.20 in1022.7 mb 0.00 in0.0 mm 0.00 in0.0 mm 0.00 in0.0 mm
10:35 AM 65.7°F18.7°C 39.3°F4.1°C 38% 1.0 mph WSW1.6 kmh WSW 4.8 mph7.7 kmh 30.19 in1022.4 mb 0.00 in0.0 mm 0.00 in0.0 mm 0.00 in0.0 mm
10:30 AM 65.5°F18.6°C 39.2°F4.0°C 38% 0.5 mph WSW0.8 kmh WSW 3.2 mph5.1 kmh 30.19 in1022.4 mb 0.00 in0.0 mm 0.00 in0.0 mm 0.00 in0.0 mm
10:25 AM 65.1°F18.4°C 39.5°F4.2°C 39% 0.7 mph WSW1.1 kmh WSW 3.2 mph5.1 kmh 30.19 in1022.4 mb 0.00 in0.0 mm 0.00 in0.0 mm 0.00 in0.0 mm
10:20 AM 64.8°F18.2°C 39.2°F4.0°C 39% 0.2 mph WSW0.3 kmh WSW 3.2 mph5.1 kmh 30.20 in1022.7 mb 0.00 in0.0 mm 0.00 in0.0 mm 0.00 in0.0 mm
10:15 AM 64.4°F18.0°C 39.5°F4.2°C 40% Calm Calm -- 30.20 in1022.7 mb 0.00 in0.0 mm 0.00 in0.0 mm 0.00 in0.0 mm
10:10 AM 63.9°F17.7°C 39.1°F3.9°C 40% 0.1 mph WSW0.2 kmh WSW 2.4 mph3.9 kmh 30.19 in1022.4 mb 0.00 in0.0 mm 0.00 in0.0 mm 0.00 in0.0 mm
10:05 AM 63.9°F17.7°C 39.1°F3.9°C 40% 1.6 mph WSW2.6 kmh WSW 5.6 mph9.0 kmh 30.20 in1022.7 mb 0.00 in0.0 mm 0.00 in0.0 mm 0.00 in0.0 mm
10:00 AM 63.7°F17.6°C 38.9°F3.8°C 40% 2.4 mph WSW3.9 kmh WSW 5.6 mph9.0 kmh 30.19 in1022.4 mb 0.00 in0.0 mm 0.00 in0.0 mm 0.00 in0.0 mm
09:55 AM 63.1°F17.3°C 39.0°F3.9°C 41% 3.9 mph WSW6.3 kmh WSW 7.2 mph11.6 kmh 30.20 in1022.7 mb 0.00 in0.0 mm 0.00 in0.0 mm 0.00 in0.0 mm
09:50 AM 63.1°F17.3°C 39.0°F3.9°C 41% 7.1 mph WSW11.4 kmh WSW 10.5 mph16.9 kmh 30.20 in1022.7 mb 0.00 in0.0 mm 0.00 in0.0 mm 0.00 in0.0 mm
09:45 AM 62.4°F16.9°C 38.4°F3.6°C 41% 9.1 mph WSW14.6 kmh WSW 10.5 mph16.9 kmh 30.20 in1022.7 mb 0.00 in0.0 mm 0.00 in0.0 mm 0.00 in0.0 mm
09:40 AM 62.2°F16.8°C 38.8°F3.8°C 42% 8.6 mph WSW13.8 kmh WSW 11.3 mph18.2 kmh 30.20 in1022.7 mb 0.00 in0.0 mm 0.00 in0.0 mm 0.00 in0.0 mm
09:35 AM 62.2°F16.8°C 38.8°F3.8°C 42% 8.7 mph WSW14.0 kmh WSW 11.3 mph18.2 kmh 30.20 in1022.7 mb 0.00 in0.0 mm 0.00 in0.0 mm 0.00 in0.0 mm
09:30 AM 61.9°F16.6°C 39.1°F3.9°C 43% 6.7 mph WSW10.8 kmh WSW 11.3 mph18.2 kmh 30.21 in1023.0 mb 0.00 in0.0 mm 0.00 in0.0 mm 0.00 in0.0 mm
09:25 AM 61.5°F16.4°C 38.8°F3.8°C 43% 2.1 mph WSW3.4 kmh WSW 8.1 mph13.0 kmh 30.21 in1023.0 mb 0.00 in0.0 mm 0.00 in0.0 mm 0.00 in0.0 mm
09:20 AM 60.6°F15.9°C 38.0°F3.3°C 43% 4.8 mph WSW7.7 kmh WSW 8.9 mph14.3 kmh 30.21 in1023.0 mb 0.00 in0.0 mm 0.00 in0.0 mm 0.00 in0.0 mm
09:15 AM 60.6°F15.9°C 39.1°F3.9°C 45% 3.7 mph WSW6.0 kmh WSW 8.9 mph14.3 kmh 30.21 in1023.0 mb 0.00 in0.0 mm 0.00 in0.0 mm 0.00 in0.0 mm
09:10 AM 59.9°F15.5°C 38.5°F3.6°C 45% Calm Calm -- 30.21 in1023.0 mb 0.00 in0.0 mm 0.00 in0.0 mm 0.00 in0.0 mm
09:05 AM 59.9°F15.5°C 38.5°F3.6°C 45% Calm Calm -- 30.21 in1023.0 mb 0.00 in0.0 mm 0.00 in0.0 mm 0.00 in0.0 mm
09:00 AM 59.4°F15.2°C 39.1°F3.9°C 47% Calm Calm -- 30.20 in1022.7 mb 0.00 in0.0 mm 0.00 in0.0 mm 0.00 in0.0 mm
08:55 AM 58.8°F14.9°C 38.6°F3.7°C 47% Calm Calm -- 30.20 in1022.7 mb 0.00 in0.0 mm 0.00 in0.0 mm 0.00 in0.0 mm
08:50 AM 58.1°F14.5°C 38.5°F3.6°C 48% Calm Calm -- 30.20 in1022.7 mb 0.00 in0.0 mm 0.00 in0.0 mm 0.00 in0.0 mm
08:45 AM 57.4°F14.1°C 38.4°F3.6°C 49% 0.9 mph WSW1.4 kmh WSW 4.8 mph7.7 kmh 30.20 in1022.7 mb 0.00 in0.0 mm 0.00 in0.0 mm 0.00 in0.0 mm
08:40 AM 57.0°F13.9°C 38.0°F3.3°C 49% 1.1 mph WSW1.8 kmh WSW 4.8 mph7.7 kmh 30.20 in1022.7 mb 0.00 in0.0 mm 0.00 in0.0 mm 0.00 in0.0 mm
08:35 AM 56.8°F13.8°C 38.4°F3.6°C 50% 1.6 mph WSW2.6 kmh WSW 6.4 mph10.3 kmh 30.19 in1022.4 mb 0.00 in0.0 mm 0.00 in0.0 mm 0.00 in0.0 mm
08:30 AM 55.9°F13.3°C 38.6°F3.7°C 52% 1.2 mph WSW1.9 kmh WSW 6.4 mph10.3 kmh 30.19 in1022.4 mb 0.00 in0.0 mm 0.00 in0.0 mm 0.00 in0.0 mm
08:25 AM 55.2°F12.9°C 37.9°F3.3°C 52% Calm Calm -- 30.19 in1022.4 mb 0.00 in0.0 mm 0.00 in0.0 mm 0.00 in0.0 mm
08:20 AM 54.0°F12.2°C 37.2°F2.9°C 53% Calm Calm -- 30.18 in1022.0 mb 0.00 in0.0 mm 0.00 in0.0 mm 0.00 in0.0 mm
08:15 AM 53.4°F11.9°C 36.7°F2.6°C 53% Calm Calm -- 30.19 in1022.4 mb 0.00 in0.0 mm 0.00 in0.0 mm 0.00 in0.0 mm
08:10 AM 52.7°F11.5°C 36.5°F2.5°C 54% Calm Calm -- 30.18 in1022.0 mb 0.00 in0.0 mm 0.00 in0.0 mm 0.00 in0.0 mm
08:05 AM 52.5°F11.4°C 36.8°F2.7°C 55% Calm Calm -- 30.18 in1022.0 mb 0.00 in0.0 mm 0.00 in0.0 mm 0.00 in0.0 mm
08:00 AM 51.8°F11.0°C 36.1°F2.3°C 55% Calm Calm -- 30.18 in1022.0 mb 0.00 in0.0 mm 0.00 in0.0 mm 0.00 in0.0 mm
07:55 AM 51.4°F10.8°C 35.8°F2.1°C 55% 0.5 mph WSW0.8 kmh WSW 2.4 mph3.9 kmh 30.18 in1022.0 mb 0.00 in0.0 mm 0.00 in0.0 mm 0.00 in0.0 mm
07:50 AM 51.1°F10.6°C 35.9°F2.2°C 56% 0.5 mph WSW0.8 kmh WSW 2.4 mph3.9 kmh 30.18 in1022.0 mb 0.00 in0.0 mm 0.00 in0.0 mm 0.00 in0.0 mm
07:45 AM 50.4°F10.2°C 35.2°F1.8°C 56% Calm Calm -- 30.17 in1021.7 mb 0.00 in0.0 mm 0.00 in0.0 mm 0.00 in0.0 mm
07:40 AM 49.8°F9.9°C 34.7°F1.5°C 56% Calm Calm -- 30.17 in1021.7 mb 0.00 in0.0 mm 0.00 in0.0 mm 0.00 in0.0 mm
07:35 AM 49.8°F9.9°C 34.7°F1.5°C 56% Calm Calm -- 30.17 in1021.7 mb 0.00 in0.0 mm 0.00 in0.0 mm 0.00 in0.0 mm
07:30 AM 49.6°F9.8°C 34.1°F1.2°C 55% Calm Calm -- 30.16 in1021.3 mb 0.00 in0.0 mm 0.00 in0.0 mm 0.00 in0.0 mm
07:25 AM 49.6°F9.8°C 34.1°F1.2°C 55% Calm Calm -- 30.16 in1021.3 mb 0.00 in0.0 mm 0.00 in0.0 mm 0.00 in0.0 mm
07:20 AM 49.6°F9.8°C 34.1°F1.2°C 55% Calm Calm -- 30.16 in1021.3 mb 0.00 in0.0 mm 0.00 in0.0 mm 0.00 in0.0 mm
07:15 AM 49.3°F9.6°C 33.8°F1.0°C 55% Calm Calm -- 30.16 in1021.3 mb 0.00 in0.0 mm 0.00 in0.0 mm 0.00 in0.0 mm
07:10 AM 49.3°F9.6°C 33.8°F1.0°C 55% Calm Calm -- 30.16 in1021.3 mb 0.00 in0.0 mm 0.00 in0.0 mm 0.00 in0.0 mm
07:05 AM 49.3°F9.6°C 33.8°F1.0°C 55% Calm Calm -- 30.16 in1021.3 mb 0.00 in0.0 mm 0.00 in0.0 mm 0.00 in0.0 mm
07:00 AM 49.6°F9.8°C 33.2°F0.7°C 53% Calm Calm -- 30.16 in1021.3 mb 0.00 in0.0 mm 0.00 in0.0 mm 0.00 in0.0 mm
06:55 AM 49.5°F9.7°C 33.0°F0.6°C 53% 0.1 mph WSW0.2 kmh WSW 2.4 mph3.9 kmh 30.16 in1021.3 mb 0.00 in0.0 mm 0.00 in0.0 mm 0.00 in0.0 mm
06:50 AM 49.6°F9.8°C 33.2°F0.7°C 53% 0.5 mph WSW0.8 kmh WSW 2.4 mph3.9 kmh 30.16 in1021.3 mb 0.00 in0.0 mm 0.00 in0.0 mm 0.00 in0.0 mm
06:45 AM 49.3°F9.6°C 32.9°F0.5°C 53% 0.5 mph WSW0.8 kmh WSW 2.4 mph3.9 kmh 30.16 in1021.3 mb 0.00 in0.0 mm 0.00 in0.0 mm 0.00 in0.0 mm
06:40 AM 49.3°F9.6°C 32.9°F0.5°C 53% Calm Calm -- 30.16 in1021.3 mb 0.00 in0.0 mm 0.00 in0.0 mm 0.00 in0.0 mm
06:35 AM 49.3°F9.6°C 32.9°F0.5°C 53% 0.8 mph WSW1.3 kmh WSW 4.0 mph6.4 kmh 30.15 in1021.0 mb 0.00 in0.0 mm 0.00 in0.0 mm 0.00 in0.0 mm
06:30 AM 49.6°F9.8°C 33.7°F0.9°C 54% 0.8 mph WSW1.3 kmh WSW 4.0 mph6.4 kmh 30.16 in1021.3 mb 0.00 in0.0 mm 0.00 in0.0 mm 0.00 in0.0 mm
06:25 AM 49.8°F9.9°C 33.4°F0.8°C 53% Calm Calm -- 30.16 in1021.3 mb 0.00 in0.0 mm 0.00 in0.0 mm 0.00 in0.0 mm
06:20 AM 50.2°F10.1°C 33.7°F0.9°C 53% Calm Calm -- 30.15 in1021.0 mb 0.00 in0.0 mm 0.00 in0.0 mm 0.00 in0.0 mm
06:15 AM 50.4°F10.2°C 33.9°F1.1°C 53% Calm Calm -- 30.15 in1021.0 mb 0.00 in0.0 mm 0.00 in0.0 mm 0.00 in0.0 mm
06:10 AM 50.5°F10.3°C 34.0°F1.1°C 53% Calm Calm -- 30.15 in1021.0 mb 0.00 in0.0 mm 0.00 in0.0 mm 0.00 in0.0 mm
06:05 AM 50.7°F10.4°C 33.7°F0.9°C 52% Calm Calm -- 30.15 in1021.0 mb 0.00 in0.0 mm 0.00 in0.0 mm 0.00 in0.0 mm
06:00 AM 50.7°F10.4°C 33.2°F0.7°C 51% Calm Calm -- 30.15 in1021.0 mb 0.00 in0.0 mm 0.00 in0.0 mm 0.00 in0.0 mm
05:55 AM 51.1°F10.6°C 33.6°F0.9°C 51% Calm Calm -- 30.14 in1020.7 mb 0.00 in0.0 mm 0.00 in0.0 mm 0.00 in0.0 mm
05:50 AM 51.1°F10.6°C 33.6°F0.9°C 51% Calm Calm -- 30.15 in1021.0 mb 0.00 in0.0 mm 0.00 in0.0 mm 0.00 in0.0 mm
05:45 AM 51.6°F10.9°C 33.6°F0.9°C 50% Calm Calm -- 30.15 in1021.0 mb 0.00 in0.0 mm 0.00 in0.0 mm 0.00 in0.0 mm
05:40 AM 52.2°F11.2°C 34.1°F1.2°C 50% 1.3 mph WSW2.1 kmh WSW 5.6 mph9.0 kmh 30.14 in1020.7 mb 0.00 in0.0 mm 0.00 in0.0 mm 0.00 in0.0 mm
05:35 AM 52.2°F11.2°C 34.1°F1.2°C 50% 2.4 mph WSW3.9 kmh WSW 5.6 mph9.0 kmh 30.14 in1020.7 mb 0.00 in0.0 mm 0.00 in0.0 mm 0.00 in0.0 mm
05:30 AM 52.3°F11.3°C 34.2°F1.2°C 50% 1.1 mph WSW1.8 kmh WSW 5.6 mph9.0 kmh 30.14 in1020.7 mb 0.00 in0.0 mm 0.00 in0.0 mm 0.00 in0.0 mm
05:25 AM 52.3°F11.3°C 34.2°F1.2°C 50% Calm Calm -- 30.14 in1020.7 mb 0.00 in0.0 mm 0.00 in0.0 mm 0.00 in0.0 mm
05:20 AM 52.5°F11.4°C 34.4°F1.3°C 50% Calm Calm -- 30.13 in1020.3 mb 0.00 in0.0 mm 0.00 in0.0 mm 0.00 in0.0 mm
05:15 AM 52.7°F11.5°C 34.1°F1.2°C 49% Calm Calm -- 30.14 in1020.7 mb 0.00 in0.0 mm 0.00 in0.0 mm 0.00 in0.0 mm
05:10 AM 52.9°F11.6°C 34.2°F1.2°C 49% 3.4 mph WSW5.5 kmh WSW 13.7 mph22.0 kmh 30.13 in1020.3 mb 0.00 in0.0 mm 0.00 in0.0 mm 0.00 in0.0 mm
05:05 AM 52.9°F11.6°C 34.2°F1.2°C 49% 7.6 mph WSW12.2 kmh WSW 13.7 mph22.0 kmh 30.13 in1020.3 mb 0.00 in0.0 mm 0.00 in0.0 mm 0.00 in0.0 mm
05:00 AM 52.9°F11.6°C 34.2°F1.2°C 49% 4.1 mph WSW6.6 kmh WSW 13.7 mph22.0 kmh 30.13 in1020.3 mb 0.00 in0.0 mm 0.00 in0.0 mm 0.00 in0.0 mm
04:55 AM 52.9°F11.6°C 34.2°F1.2°C 49% 2.0 mph WSW3.2 kmh WSW 4.8 mph7.7 kmh 30.13 in1020.3 mb 0.00 in0.0 mm 0.00 in0.0 mm 0.00 in0.0 mm
04:50 AM 52.9°F11.6°C 34.2°F1.2°C 49% 4.3 mph WSW6.9 kmh WSW 4.8 mph7.7 kmh 30.13 in1020.3 mb 0.00 in0.0 mm 0.00 in0.0 mm 0.00 in0.0 mm
04:45 AM 52.7°F11.5°C 34.6°F1.4°C 50% 4.5 mph WSW7.2 kmh WSW 8.1 mph13.0 kmh 30.13 in1020.3 mb 0.00 in0.0 mm 0.00 in0.0 mm 0.00 in0.0 mm
04:40 AM 52.7°F11.5°C 34.6°F1.4°C 50% 6.4 mph WSW10.3 kmh WSW 8.9 mph14.3 kmh 30.13 in1020.3 mb 0.00 in0.0 mm 0.00 in0.0 mm 0.00 in0.0 mm
04:35 AM 52.7°F11.5°C 34.6°F1.4°C 50% 6.1 mph WSW9.8 kmh WSW 8.9 mph14.3 kmh 30.13 in1020.3 mb 0.00 in0.0 mm 0.00 in0.0 mm 0.00 in0.0 mm
04:30 AM 52.7°F11.5°C 34.6°F1.4°C 50% 4.2 mph WSW6.8 kmh WSW 8.9 mph14.3 kmh 30.13 in1020.3 mb 0.00 in0.0 mm 0.00 in0.0 mm 0.00 in0.0 mm
04:25 AM 52.5°F11.4°C 34.4°F1.3°C 50% 5.1 mph WSW8.2 kmh WSW 6.4 mph10.3 kmh 30.13 in1020.3 mb 0.00 in0.0 mm 0.00 in0.0 mm 0.00 in0.0 mm
04:20 AM 52.5°F11.4°C 34.4°F1.3°C 50% 3.7 mph WSW6.0 kmh WSW 7.2 mph11.6 kmh 30.13 in1020.3 mb 0.00 in0.0 mm 0.00 in0.0 mm 0.00 in0.0 mm
04:15 AM 52.5°F11.4°C 34.9°F1.6°C 51% 3.5 mph WSW5.6 kmh WSW 8.9 mph14.3 kmh 30.12 in1020.0 mb 0.00 in0.0 mm 0.00 in0.0 mm 0.00 in0.0 mm
04:10 AM 52.5°F11.4°C 34.9°F1.6°C 51% 2.6 mph WSW4.2 kmh WSW 8.9 mph14.3 kmh 30.13 in1020.3 mb 0.00 in0.0 mm 0.00 in0.0 mm 0.00 in0.0 mm
04:05 AM 52.7°F11.5°C 35.1°F1.7°C 51% Calm Calm -- 30.12 in1020.0 mb 0.00 in0.0 mm 0.00 in0.0 mm 0.00 in0.0 mm
04:00 AM 53.4°F11.9°C 35.2°F1.8°C 50% Calm Calm -- 30.13 in1020.3 mb 0.00 in0.0 mm 0.00 in0.0 mm 0.00 in0.0 mm
03:55 AM 53.4°F11.9°C 35.2°F1.8°C 50% Calm Calm -- 30.12 in1020.0 mb 0.00 in0.0 mm 0.00 in0.0 mm 0.00 in0.0 mm
03:50 AM 53.4°F11.9°C 34.7°F1.5°C 49% Calm Calm -- 30.13 in1020.3 mb 0.00 in0.0 mm 0.00 in0.0 mm 0.00 in0.0 mm
03:45 AM 53.8°F12.1°C 35.1°F1.7°C 49% Calm Calm -- 30.12 in1020.0 mb 0.00 in0.0 mm 0.00 in0.0 mm 0.00 in0.0 mm
03:40 AM 54.0°F12.2°C 35.2°F1.8°C 49% Calm Calm -- 30.12 in1020.0 mb 0.00 in0.0 mm 0.00 in0.0 mm 0.00 in0.0 mm
03:35 AM 54.1°F12.3°C 35.4°F1.9°C 49% Calm Calm -- 30.12 in1020.0 mb 0.00 in0.0 mm 0.00 in0.0 mm 0.00 in0.0 mm
03:30 AM 54.5°F12.5°C 35.7°F2.1°C 49% Calm Calm -- 30.12 in1020.0 mb 0.00 in0.0 mm 0.00 in0.0 mm 0.00 in0.0 mm
03:25 AM 54.7°F12.6°C 35.4°F1.9°C 48% Calm Calm -- 30.12 in1020.0 mb 0.00 in0.0 mm 0.00 in0.0 mm 0.00 in0.0 mm
03:20 AM 54.7°F12.6°C 35.4°F1.9°C 48% Calm Calm -- 30.11 in1019.6 mb 0.00 in0.0 mm 0.00 in0.0 mm 0.00 in0.0 mm
03:15 AM 54.9°F12.7°C 35.5°F1.9°C 48% Calm Calm -- 30.12 in1020.0 mb 0.00 in0.0 mm 0.00 in0.0 mm 0.00 in0.0 mm
03:10 AM 55.0°F12.8°C 35.7°F2.1°C 48% Calm Calm -- 30.11 in1019.6 mb 0.00 in0.0 mm 0.00 in0.0 mm 0.00 in0.0 mm
03:05 AM 55.4°F13.0°C 35.5°F1.9°C 47% Calm Calm -- 30.12 in1020.0 mb 0.00 in0.0 mm 0.00 in0.0 mm 0.00 in0.0 mm
03:00 AM 55.6°F13.1°C 35.7°F2.1°C 47% 1.9 mph WSW3.1 kmh WSW 4.0 mph6.4 kmh 30.11 in1019.6 mb 0.00 in0.0 mm 0.00 in0.0 mm 0.00 in0.0 mm
02:55 AM 55.9°F13.3°C 36.5°F2.5°C 48% 2.6 mph WSW4.2 kmh WSW 4.0 mph6.4 kmh 30.11 in1019.6 mb 0.00 in0.0 mm 0.00 in0.0 mm 0.00 in0.0 mm
02:50 AM 55.9°F13.3°C 36.0°F2.2°C 47% 1.0 mph WSW1.6 kmh WSW 4.0 mph6.4 kmh 30.11 in1019.6 mb 0.00 in0.0 mm 0.00 in0.0 mm 0.00 in0.0 mm
02:45 AM 55.9°F13.3°C 36.0°F2.2°C 47% Calm Calm -- 30.11 in1019.6 mb 0.00 in0.0 mm 0.00 in0.0 mm 0.00 in0.0 mm
02:40 AM 56.1°F13.4°C 36.1°F2.3°C 47% Calm Calm -- 30.11 in1019.6 mb 0.00 in0.0 mm 0.00 in0.0 mm 0.00 in0.0 mm
02:35 AM 56.3°F13.5°C 36.3°F2.4°C 47% Calm Calm -- 30.11 in1019.6 mb 0.00 in0.0 mm 0.00 in0.0 mm 0.00 in0.0 mm
02:30 AM 56.7°F13.7°C 36.6°F2.6°C 47% Calm Calm -- 30.11 in1019.6 mb 0.00 in0.0 mm 0.00 in0.0 mm 0.00 in0.0 mm
02:25 AM 56.8°F13.8°C 36.8°F2.7°C 47% Calm Calm -- 30.11 in1019.6 mb 0.00 in0.0 mm 0.00 in0.0 mm 0.00 in0.0 mm
02:20 AM 57.0°F13.9°C 37.0°F2.8°C 47% Calm Calm -- 30.11 in1019.6 mb 0.00 in0.0 mm 0.00 in0.0 mm 0.00 in0.0 mm
02:15 AM 57.4°F14.1°C 36.8°F2.7°C 46% Calm Calm -- 30.11 in1019.6 mb 0.00 in0.0 mm 0.00 in0.0 mm 0.00 in0.0 mm
02:10 AM 57.4°F14.1°C 36.8°F2.7°C 46% Calm Calm -- 30.11 in1019.6 mb 0.00 in0.0 mm 0.00 in0.0 mm 0.00 in0.0 mm
02:05 AM 57.4°F14.1°C 36.8°F2.7°C 46% Calm Calm -- 30.11 in1019.6 mb 0.00 in0.0 mm 0.00 in0.0 mm 0.00 in0.0 mm
02:00 AM 57.4°F14.1°C 37.3°F2.9°C 47% Calm Calm -- 30.11 in1019.6 mb 0.00 in0.0 mm 0.00 in0.0 mm 0.00 in0.0 mm
01:55 AM 57.4°F14.1°C 36.8°F2.7°C 46% Calm Calm -- 30.11 in1019.6 mb 0.00 in0.0 mm 0.00 in0.0 mm 0.00 in0.0 mm
01:50 AM 57.4°F14.1°C 37.3°F2.9°C 47% Calm Calm -- 30.10 in1019.3 mb 0.00 in0.0 mm 0.00 in0.0 mm 0.00 in0.0 mm
01:45 AM 57.6°F14.2°C 37.5°F3.1°C 47% Calm Calm -- 30.10 in1019.3 mb 0.00 in0.0 mm 0.00 in0.0 mm 0.00 in0.0 mm
01:40 AM 57.6°F14.2°C 37.5°F3.1°C 47% Calm Calm -- 30.10 in1019.3 mb 0.00 in0.0 mm 0.00 in0.0 mm 0.00 in0.0 mm
01:35 AM 57.7°F14.3°C 37.6°F3.1°C 47% Calm Calm -- 30.11 in1019.6 mb 0.00 in0.0 mm 0.00 in0.0 mm 0.00 in0.0 mm
01:30 AM 57.7°F14.3°C 37.6°F3.1°C 47% Calm Calm -- 30.10 in1019.3 mb 0.00 in0.0 mm 0.00 in0.0 mm 0.00 in0.0 mm
01:25 AM 57.9°F14.4°C 38.3°F3.5°C 48% 1.1 mph WSW1.8 kmh WSW 5.6 mph9.0 kmh 30.10 in1019.3 mb 0.00 in0.0 mm 0.00 in0.0 mm 0.00 in0.0 mm
01:20 AM 57.9°F14.4°C 38.3°F3.5°C 48% 1.1 mph WSW1.8 kmh WSW 5.6 mph9.0 kmh 30.10 in1019.3 mb 0.00 in0.0 mm 0.00 in0.0 mm 0.00 in0.0 mm
01:15 AM 57.9°F14.4°C 38.3°F3.5°C 48% Calm Calm -- 30.10 in1019.3 mb 0.00 in0.0 mm 0.00 in0.0 mm 0.00 in0.0 mm
01:10 AM 57.9°F14.4°C 38.3°F3.5°C 48% 0.6 mph WSW1.0 kmh WSW 3.2 mph5.1 kmh 30.10 in1019.3 mb 0.00 in0.0 mm 0.00 in0.0 mm 0.00 in0.0 mm
01:05 AM 57.9°F14.4°C 38.9°F3.8°C 49% 0.9 mph WSW1.4 kmh WSW 3.2 mph5.1 kmh 30.10 in1019.3 mb 0.00 in0.0 mm 0.00 in0.0 mm 0.00 in0.0 mm
01:00 AM 57.9°F14.4°C 38.9°F3.8°C 49% 0.5 mph WSW0.8 kmh WSW 2.4 mph3.9 kmh 30.10 in1019.3 mb 0.00 in0.0 mm 0.00 in0.0 mm 0.00 in0.0 mm
12:55 AM 58.3°F14.6°C 39.7°F4.3°C 50% 0.2 mph WSW0.3 kmh WSW 2.4 mph3.9 kmh 30.10 in1019.3 mb 0.00 in0.0 mm 0.00 in0.0 mm 0.00 in0.0 mm
12:50 AM 58.3°F14.6°C 39.7°F4.3°C 50% Calm Calm -- 30.09 in1019.0 mb 0.00 in0.0 mm 0.00 in0.0 mm 0.00 in0.0 mm
12:45 AM 58.3°F14.6°C 39.2°F4.0°C 49% Calm Calm -- 30.10 in1019.3 mb 0.00 in0.0 mm 0.00 in0.0 mm 0.00 in0.0 mm
12:40 AM 58.6°F14.8°C 39.5°F4.2°C 49% Calm Calm -- 30.09 in1019.0 mb 0.00 in0.0 mm 0.00 in0.0 mm 0.00 in0.0 mm
12:35 AM 58.8°F14.9°C 39.7°F4.3°C 49% Calm Calm -- 30.09 in1019.0 mb 0.00 in0.0 mm 0.00 in0.0 mm 0.00 in0.0 mm
12:30 AM 59.0°F15.0°C 39.3°F4.1°C 48% Calm Calm -- 30.09 in1019.0 mb 0.00 in0.0 mm 0.00 in0.0 mm 0.00 in0.0 mm
12:25 AM 59.2°F15.1°C 39.5°F4.2°C 48% Calm Calm -- 30.09 in1019.0 mb 0.00 in0.0 mm 0.00 in0.0 mm 0.00 in0.0 mm
12:20 AM 59.2°F15.1°C 38.9°F3.8°C 47% Calm Calm -- 30.09 in1019.0 mb 0.00 in0.0 mm 0.00 in0.0 mm 0.00 in0.0 mm
12:15 AM 59.4°F15.2°C 39.1°F3.9°C 47% Calm Calm -- 30.09 in1019.0 mb 0.00 in0.0 mm 0.00 in0.0 mm 0.00 in0.0 mm
12:10 AM 59.5°F15.3°C 39.3°F4.1°C 47% Calm Calm -- 30.09 in1019.0 mb 0.00 in0.0 mm 0.00 in0.0 mm 0.00 in0.0 mm
12:05 AM 59.5°F15.3°C 39.3°F4.1°C 47% Calm Calm -- 30.08 in1018.6 mb 0.00 in0.0 mm 0.00 in0.0 mm 0.00 in0.0 mm
12:00 AM 59.7°F15.4°C 39.4°F4.1°C 47% Calm Calm -- 30.08 in1018.6 mb 0.00 in0.0 mm 0.00 in0.0 mm 0.00 in0.0 mm